createdAt,value
2018-11-29T00:00:23.760Z,16.93
2018-11-29T00:02:53.516Z,17.82
2018-11-29T00:05:22.251Z,18.92
2018-11-29T00:07:50.987Z,16.42
2018-11-29T00:10:19.739Z,16.82
2018-11-29T00:12:48.450Z,15.32
2018-11-29T00:15:17.324Z,16.93
2018-11-29T00:17:46.019Z,17.20
2018-11-29T00:20:15.647Z,17.15
2018-11-29T00:22:45.152Z,17.23
2018-11-29T00:25:15.371Z,17.65
2018-11-29T00:27:44.319Z,16.62
2018-11-29T00:30:19.799Z,15.58
2018-11-29T00:32:48.610Z,17.42
2018-11-29T00:35:17.930Z,17.00
2018-11-29T00:37:46.700Z,15.65
2018-11-29T00:40:18.388Z,17.15
2018-11-29T00:42:47.087Z,17.95
2018-11-29T00:45:17.579Z,17.65
2018-11-29T00:47:46.899Z,17.50
2018-11-29T00:50:16.240Z,16.02
2018-11-29T00:52:45.716Z,16.62
2018-11-29T00:55:16.216Z,18.05
2018-11-29T00:57:44.961Z,19.40
2018-11-29T01:00:18.392Z,17.73
2018-11-29T01:02:47.101Z,16.50
2018-11-29T01:05:15.853Z,18.17
2018-11-29T01:07:44.612Z,17.98
2018-11-29T01:10:14.953Z,16.00
2018-11-29T01:12:43.912Z,16.90
2018-11-29T01:15:14.274Z,19.20
2018-11-29T01:17:43.229Z,17.90
2018-11-29T01:20:12.887Z,17.80
2018-11-29T01:22:41.658Z,17.65
2018-11-29T01:25:11.375Z,18.57
2018-11-29T01:27:40.228Z,16.12
2018-11-29T01:30:11.708Z,16.62
2018-11-29T01:32:40.447Z,19.45
2018-11-29T01:35:10.376Z,16.20
2018-11-29T01:37:39.199Z,17.07
2018-11-29T01:40:10.963Z,16.30
2018-11-29T01:42:39.691Z,17.90
2018-11-29T01:45:08.419Z,17.50
2018-11-29T01:47:37.124Z,17.17
2018-11-29T01:50:05.905Z,18.62
2018-11-29T01:52:34.642Z,18.35
2018-11-29T01:55:03.351Z,17.02
2018-11-29T01:57:32.284Z,19.95
2018-11-29T02:00:00.969Z,16.55
2018-11-29T02:02:29.688Z,17.55
2018-11-29T02:04:58.412Z,17.98
2018-11-29T02:07:27.132Z,16.30
2018-11-29T02:10:00.890Z,17.98
2018-11-29T02:12:29.580Z,16.70
2018-11-29T02:14:58.320Z,16.87
2018-11-29T02:17:27.015Z,18.32
2018-11-29T02:19:55.745Z,16.60
2018-11-29T02:22:24.447Z,17.02
2018-11-29T02:24:53.207Z,16.85
2018-11-29T02:27:21.916Z,17.27
2018-11-29T02:29:50.650Z,16.87
2018-11-29T02:32:19.351Z,16.05
2018-11-29T02:34:48.061Z,16.17
2018-11-29T02:37:16.776Z,17.07
2018-11-29T02:39:45.520Z,21.30
2018-11-29T02:42:14.249Z,16.27
2018-11-29T02:44:42.965Z,17.20
2018-11-29T02:47:11.659Z,16.90
2018-11-29T02:49:40.348Z,17.15
2018-11-29T02:52:09.024Z,19.17
2018-11-29T02:54:37.720Z,18.40
2018-11-29T02:57:06.460Z,17.30
2018-11-29T02:59:35.189Z,17.80
2018-11-29T03:02:03.984Z,18.87
2018-11-29T03:04:32.684Z,18.48
2018-11-29T03:07:01.379Z,17.17
2018-11-29T03:09:30.123Z,18.77
2018-11-29T03:11:58.817Z,17.62
2018-11-29T03:14:27.523Z,17.57
2018-11-29T03:16:56.227Z,18.05
2018-11-29T03:19:24.951Z,15.65
2018-11-29T03:21:53.657Z,16.55
2018-11-29T03:24:22.368Z,19.15
2018-11-29T03:26:51.099Z,19.95
2018-11-29T03:29:19.815Z,16.17
2018-11-29T03:31:48.591Z,18.37
2018-11-29T03:34:17.320Z,17.42
2018-11-29T03:36:46.031Z,18.35
2018-11-29T03:39:14.751Z,17.87
2018-11-29T03:41:43.460Z,18.32
2018-11-29T03:44:12.167Z,16.93
2018-11-29T03:46:40.944Z,18.10
2018-11-29T03:49:09.680Z,16.97
2018-11-29T03:51:38.369Z,17.65
2018-11-29T03:54:07.147Z,18.42
2018-11-29T03:56:35.858Z,19.98
2018-11-29T03:59:04.570Z,17.20
2018-11-29T04:01:33.274Z,19.70
2018-11-29T04:04:01.984Z,17.67
2018-11-29T04:06:30.687Z,17.85
2018-11-29T04:08:59.456Z,17.48
2018-11-29T04:11:28.161Z,17.05
2018-11-29T04:13:56.905Z,18.20
2018-11-29T04:16:25.626Z,16.42
2018-11-29T04:18:54.376Z,16.82
2018-11-29T04:21:23.095Z,15.85
2018-11-29T04:23:51.815Z,17.62
2018-11-29T04:26:20.530Z,17.32
2018-11-29T04:28:49.271Z,18.23
2018-11-29T04:31:17.964Z,20.10
2018-11-29T04:33:46.690Z,20.95
2018-11-29T04:36:15.436Z,17.30
2018-11-29T04:38:44.156Z,17.70
2018-11-29T04:41:12.896Z,16.15
2018-11-29T04:43:41.670Z,17.80
2018-11-29T04:47:14.868Z,17.20
2018-11-29T04:49:43.785Z,16.80
2018-11-29T04:52:12.710Z,17.30
2018-11-29T04:54:41.440Z,15.75
2018-11-29T04:57:10.177Z,17.87
2018-11-29T04:59:38.884Z,16.07
2018-11-29T05:02:07.653Z,18.45
2018-11-29T05:04:36.385Z,16.32
2018-11-29T05:07:05.119Z,15.60
2018-11-29T05:09:33.832Z,14.73
2018-11-29T05:12:02.556Z,18.55
2018-11-29T05:14:31.231Z,17.00
2018-11-29T05:17:00.016Z,17.40
2018-11-29T05:19:28.747Z,16.10
2018-11-29T05:21:57.458Z,17.40
2018-11-29T05:24:26.177Z,15.95
2018-11-29T05:26:55.046Z,15.60
2018-11-29T05:29:23.782Z,16.85
2018-11-29T05:31:52.562Z,17.10
2018-11-29T05:34:21.296Z,16.52
2018-11-29T05:36:50.015Z,17.25
2018-11-29T05:39:18.724Z,15.18
2018-11-29T05:41:47.442Z,15.53
2018-11-29T05:44:16.152Z,15.45
2018-11-29T05:46:44.869Z,15.18
2018-11-29T05:49:13.576Z,15.53
2018-11-29T05:51:42.299Z,15.03
2018-11-29T05:54:12.905Z,15.50
2018-11-29T05:56:41.623Z,14.03
2018-11-29T05:59:10.321Z,15.30
2018-11-29T06:01:41.056Z,15.25
2018-11-29T06:04:09.880Z,16.30
2018-11-29T06:06:38.613Z,14.83
2018-11-29T06:09:10.612Z,14.53
2018-11-29T06:11:39.867Z,14.07
2018-11-29T06:14:08.930Z,14.70
2018-11-29T06:16:38.278Z,13.80
2018-11-29T06:19:08.193Z,15.90
2018-11-29T06:21:36.923Z,13.45
2018-11-29T06:24:05.900Z,12.25
2018-11-29T06:26:34.623Z,13.78
2018-11-29T06:29:03.365Z,13.53
2018-11-29T06:31:32.134Z,12.07
2018-11-29T06:34:00.874Z,13.25
2018-11-29T06:36:29.615Z,11.28
2018-11-29T06:38:58.351Z,12.55
2018-11-29T06:41:27.171Z,14.63
2018-11-29T06:43:55.901Z,11.73
2018-11-29T06:46:25.713Z,12.13
2018-11-29T06:48:53.395Z,12.55
2018-11-29T06:51:22.115Z,11.88
2018-11-29T06:53:55.944Z,13.05
2018-11-29T06:56:24.679Z,10.78
2018-11-29T06:58:53.417Z,10.72
2018-11-29T07:01:22.180Z,12.10
2018-11-29T07:03:50.985Z,11.60
2018-11-29T07:06:19.728Z,11.90
2018-11-29T07:08:48.448Z,11.18
2018-11-29T07:11:17.164Z,10.35
2018-11-29T07:13:45.875Z,10.82
2018-11-29T07:16:14.617Z,12.28
2018-11-29T07:18:43.352Z,11.12
2018-11-29T07:21:23.080Z,11.45
2018-11-29T07:23:51.778Z,12.47
2018-11-29T07:26:20.550Z,10.25
2018-11-29T07:28:49.275Z,11.00
2018-11-29T07:31:18.022Z,12.47
2018-11-29T07:33:46.752Z,11.35
2018-11-29T07:36:15.509Z,10.60
2018-11-29T07:38:44.233Z,11.45
2018-11-29T07:41:12.963Z,12.18
2018-11-29T07:43:41.705Z,12.03
2018-11-29T07:46:10.413Z,10.25
2018-11-29T07:48:39.117Z,10.95
2018-11-29T07:51:07.885Z,11.28
2018-11-29T07:53:36.636Z,11.15
2018-11-29T07:56:05.467Z,11.05
2018-11-29T07:58:34.152Z,12.50
2018-11-29T08:01:02.906Z,11.93
2018-11-29T08:03:31.596Z,12.85
2018-11-29T08:06:00.317Z,12.13
2018-11-29T08:08:29.019Z,12.43
2018-11-29T08:10:57.740Z,11.93
2018-11-29T08:13:26.448Z,12.28
2018-11-29T08:15:55.165Z,12.30
2018-11-29T08:18:23.891Z,14.98
2018-11-29T08:20:52.699Z,12.55
2018-11-29T08:23:21.387Z,14.65
2018-11-29T08:25:50.119Z,12.88
2018-11-29T08:28:18.810Z,14.10
2018-11-29T08:30:47.541Z,12.82
2018-11-29T08:33:16.243Z,13.58
2018-11-29T08:35:45.023Z,14.43
2018-11-29T08:38:13.729Z,13.83
2018-11-29T08:40:42.455Z,15.10
2018-11-29T08:43:11.156Z,14.73
2018-11-29T08:45:39.864Z,14.00
2018-11-29T08:48:08.560Z,13.95
2018-11-29T08:50:37.345Z,13.53
2018-11-29T08:53:11.844Z,12.50
2018-11-29T08:55:40.609Z,14.60
2018-11-29T08:58:09.315Z,14.10
2018-11-29T09:00:38.033Z,15.65
2018-11-29T09:03:06.784Z,14.07
2018-11-29T09:05:35.584Z,14.75
2018-11-29T09:08:04.328Z,15.15
2018-11-29T09:10:33.041Z,12.53
2018-11-29T09:13:01.761Z,13.03
2018-11-29T09:15:30.487Z,14.10
2018-11-29T09:17:59.239Z,13.30
2018-11-29T09:20:27.960Z,13.30
2018-11-29T09:22:56.677Z,12.00
2018-11-29T09:25:25.413Z,12.00
2018-11-29T09:27:54.104Z,13.88
2018-11-29T09:30:23.703Z,12.80
2018-11-29T09:32:54.207Z,13.25
2018-11-29T09:35:23.037Z,13.08
2018-11-29T09:37:51.672Z,13.87
2018-11-29T09:40:20.488Z,12.88
2018-11-29T09:42:49.244Z,11.97
2018-11-29T09:45:19.644Z,13.30
2018-11-29T09:47:49.483Z,11.40
2018-11-29T09:50:18.546Z,12.43
2018-11-29T09:52:47.234Z,12.37
2018-11-29T09:55:16.643Z,12.20
2018-11-29T09:57:45.753Z,12.17
2018-11-29T10:00:27.113Z,12.63
2018-11-29T10:03:08.028Z,12.00
2018-11-29T10:05:36.896Z,12.50
2018-11-29T10:08:11.877Z,10.97
2018-11-29T10:10:35.044Z,12.17
2018-11-29T10:13:03.712Z,11.33
2018-11-29T10:15:32.372Z,11.13
2018-11-29T10:18:01.085Z,12.63
2018-11-29T10:20:29.743Z,11.23
2018-11-29T10:22:58.396Z,11.17
2018-11-29T10:25:27.085Z,11.33
2018-11-29T10:28:01.333Z,12.30
2018-11-29T10:30:33.731Z,11.70
2018-11-29T10:33:02.368Z,12.10
2018-11-29T10:35:31.519Z,9.70
2018-11-29T10:38:00.128Z,11.20
2018-11-29T10:40:28.759Z,9.67
2018-11-29T10:42:57.448Z,8.67
2018-11-29T10:45:26.084Z,9.00
2018-11-29T10:47:55.522Z,11.30
2018-11-29T10:50:24.194Z,9.07
2018-11-29T10:52:52.812Z,10.70
2018-11-29T10:55:21.474Z,8.03
2018-11-29T11:00:35.159Z,9.50
2018-11-29T11:03:12.399Z,10.87
2018-11-29T11:05:41.188Z,10.10
2018-11-29T11:08:10.239Z,9.83
2018-11-29T11:10:39.952Z,9.80
2018-11-29T11:13:08.888Z,7.93
2018-11-29T11:15:38.208Z,9.60
2018-11-29T11:18:08.333Z,9.37
2018-11-29T11:20:37.286Z,12.77
2018-11-29T11:23:06.105Z,9.40
2018-11-29T11:25:34.868Z,8.13
2018-11-29T11:28:04.204Z,8.70
2018-11-29T11:30:33.105Z,9.93
2018-11-29T11:33:01.833Z,7.90
2018-11-29T11:35:31.652Z,8.87
2018-11-29T11:38:00.384Z,10.03
2018-11-29T11:40:29.307Z,8.90
2018-11-29T11:42:57.966Z,8.90
2018-11-29T11:45:26.754Z,10.17
2018-11-29T11:47:55.416Z,9.30
2018-11-29T11:50:25.108Z,9.37
2018-11-29T11:52:55.006Z,8.87
2018-11-29T11:55:30.079Z,7.90
2018-11-29T11:57:52.735Z,10.20
2018-11-29T12:00:25.797Z,8.70
2018-11-29T12:03:00.606Z,7.53
2018-11-29T12:05:29.401Z,9.03
2018-11-29T12:07:58.080Z,7.50
2018-11-29T12:10:26.893Z,9.20
2018-11-29T12:12:55.564Z,8.80
2018-11-29T12:15:24.300Z,8.50
2018-11-29T12:17:53.176Z,8.67
2018-11-29T12:20:21.924Z,8.20
2018-11-29T12:22:50.588Z,7.83
2018-11-29T12:25:20.433Z,8.70
2018-11-29T12:27:49.316Z,9.27
2018-11-29T12:30:29.121Z,8.23
2018-11-29T12:33:00.130Z,10.10
2018-11-29T12:35:28.929Z,8.43
2018-11-29T12:37:57.708Z,8.73
2018-11-29T12:40:26.443Z,7.43
2018-11-29T12:42:55.172Z,7.53
2018-11-29T12:45:23.870Z,7.27
2018-11-29T12:47:52.622Z,8.13
2018-11-29T12:50:22.860Z,9.67
2018-11-29T12:52:51.522Z,7.60
2018-11-29T12:55:21.261Z,7.90
2018-11-29T12:58:04.417Z,7.90
2018-11-29T13:00:19.895Z,5.97
2018-11-29T13:02:56.688Z,7.87
2018-11-29T13:05:26.147Z,7.93
2018-11-29T13:07:55.064Z,7.73
2018-11-29T13:10:25.786Z,7.30
2018-11-29T13:12:54.968Z,6.87
2018-11-29T13:15:35.351Z,8.50
2018-11-29T13:18:07.712Z,7.23
2018-11-29T13:20:38.419Z,6.73
2018-11-29T13:23:07.520Z,7.10
2018-11-29T13:25:39.300Z,7.37
2018-11-29T13:28:08.560Z,6.87
2018-11-29T13:30:38.235Z,7.17
2018-11-29T13:33:10.768Z,6.93
2018-11-29T13:35:39.465Z,8.07
2018-11-29T13:38:10.917Z,8.50
2018-11-29T13:40:40.129Z,6.60
2018-11-29T13:43:08.807Z,7.07
2018-11-29T13:45:37.649Z,7.63
2018-11-29T13:48:07.541Z,7.83
2018-11-29T13:50:36.248Z,6.93
2018-11-29T13:53:05.776Z,7.60
2018-11-29T13:55:35.098Z,7.60
2018-11-29T13:58:03.928Z,6.97
2018-11-29T14:00:32.680Z,7.50
2018-11-29T14:03:03.548Z,7.00
2018-11-29T14:05:32.225Z,8.93
2018-11-29T14:08:01.275Z,8.20
2018-11-29T14:10:29.975Z,9.47
2018-11-29T14:12:58.655Z,8.80
2018-11-29T14:15:28.552Z,7.17
2018-11-29T14:17:57.265Z,8.70
2018-11-29T14:20:25.955Z,7.87
2018-11-29T14:22:54.846Z,8.90
2018-11-29T14:25:23.636Z,8.63
2018-11-29T14:27:54.621Z,8.03
2018-11-29T14:30:28.363Z,7.50
2018-11-29T14:32:58.376Z,8.07
2018-11-29T14:35:27.216Z,7.30
2018-11-29T14:37:55.874Z,8.10
2018-11-29T14:40:25.568Z,8.53
2018-11-29T14:42:54.277Z,7.33
2018-11-29T14:45:26.127Z,8.80
2018-11-29T14:47:55.249Z,7.93
2018-11-29T14:50:28.984Z,7.10
2018-11-29T14:52:57.664Z,7.63
2018-11-29T14:55:26.429Z,8.10
2018-11-29T14:57:55.256Z,7.00
2018-11-29T15:00:23.901Z,8.77
2018-11-29T15:02:52.880Z,7.63
2018-11-29T15:05:28.950Z,7.83
2018-11-29T15:07:57.611Z,8.20
2018-11-29T15:10:26.299Z,6.83
2018-11-29T15:12:55.131Z,7.33
2018-11-29T15:15:23.765Z,7.17
2018-11-29T15:17:53.601Z,6.77
2018-11-29T15:20:23.789Z,7.30
2018-11-29T15:22:52.528Z,6.20
2018-11-29T15:25:21.285Z,6.03
2018-11-29T15:27:49.992Z,6.53
2018-11-29T15:30:20.557Z,7.20
2018-11-29T15:32:48.944Z,6.03
2018-11-29T15:35:17.719Z,7.10
2018-11-29T15:37:46.529Z,6.60
2018-11-29T15:40:16.389Z,5.73
2018-11-29T15:42:45.172Z,6.67
2018-11-29T15:45:20.086Z,5.70
2018-11-29T15:47:48.932Z,6.57
2018-11-29T15:50:17.861Z,6.73
2018-11-29T15:52:46.690Z,6.50
2018-11-29T15:55:23.413Z,5.10
2018-11-29T15:57:54.198Z,5.50
2018-11-29T16:00:26.058Z,5.80
2018-11-29T16:02:55.807Z,5.07
2018-11-29T16:05:24.531Z,6.53
2018-11-29T16:07:53.348Z,6.43
2018-11-29T16:10:23.985Z,5.70
2018-11-29T16:12:52.775Z,5.80
2018-11-29T16:15:22.067Z,6.20
2018-11-29T16:17:51.985Z,7.77
2018-11-29T16:20:22.187Z,7.50
2018-11-29T16:22:51.062Z,5.27
2018-11-29T16:25:19.844Z,6.00
2018-11-29T16:27:48.618Z,9.77
2018-11-29T16:30:23.839Z,8.33
2018-11-29T16:32:52.990Z,7.15
2018-11-29T16:35:21.778Z,8.07
2018-11-29T16:37:50.580Z,6.95
2018-11-29T16:40:19.381Z,6.27
2018-11-29T16:42:48.076Z,5.80
2018-11-29T16:45:16.759Z,5.50
2018-11-29T16:47:45.430Z,5.93
2018-11-29T16:50:15.375Z,6.33
2018-11-29T16:52:44.132Z,5.73
2018-11-29T16:55:13.343Z,6.27
2018-11-29T16:57:45.876Z,5.50
2018-11-29T17:00:20.384Z,6.80
2018-11-29T17:02:49.211Z,5.35
2018-11-29T17:05:18.034Z,5.47
2018-11-29T17:07:46.816Z,6.87
2018-11-29T17:10:18.901Z,5.80
2018-11-29T17:12:51.647Z,5.03
2018-11-29T17:15:20.642Z,6.40
2018-11-29T17:17:49.308Z,5.60
2018-11-29T17:20:19.084Z,5.10
2018-11-29T17:22:49.084Z,7.50
2018-11-29T17:25:17.899Z,6.70
2018-11-29T17:27:46.564Z,6.13
2018-11-29T17:30:16.448Z,5.93
2018-11-29T17:32:45.118Z,6.93
2018-11-29T17:35:13.860Z,8.00
2018-11-29T17:37:42.712Z,6.10
2018-11-29T17:40:13.788Z,5.95
2018-11-29T17:42:42.534Z,7.03
2018-11-29T17:45:14.652Z,6.13
2018-11-29T17:47:44.127Z,7.17
2018-11-29T17:50:45.195Z,6.87
2018-11-29T17:53:13.925Z,5.73
2018-11-29T17:55:43.672Z,7.47
2018-11-29T17:58:13.204Z,6.60
2018-11-29T18:00:42.703Z,7.63
2018-11-29T18:03:12.056Z,7.65
2018-11-29T18:05:40.876Z,7.40
2018-11-29T18:08:09.692Z,7.72
2018-11-29T18:10:40.096Z,6.22
2018-11-29T18:13:17.265Z,8.10
2018-11-29T18:15:46.064Z,6.90
2018-11-29T18:18:14.840Z,8.25
2018-11-29T18:20:43.618Z,7.25
2018-11-29T18:23:12.392Z,7.08
2018-11-29T18:25:41.145Z,6.95
2018-11-29T18:28:10.817Z,8.38
2018-11-29T18:30:39.613Z,8.85
2018-11-29T18:33:08.471Z,7.70
2018-11-29T18:35:37.302Z,8.13
2018-11-29T18:38:07.238Z,7.00
2018-11-29T18:40:36.518Z,8.35
2018-11-29T18:43:07.144Z,7.62
2018-11-29T18:45:35.938Z,7.90
2018-11-29T18:48:04.747Z,7.70
2018-11-29T18:50:33.446Z,9.50
2018-11-29T18:53:02.176Z,8.63
2018-11-29T18:55:30.997Z,10.38
2018-11-29T18:57:59.652Z,9.50
2018-11-29T19:00:33.887Z,8.70
2018-11-29T19:03:02.562Z,9.07
2018-11-29T19:05:31.341Z,8.25
2018-11-29T19:08:00.109Z,9.15
2018-11-29T19:10:28.813Z,9.27
2018-11-29T19:13:09.414Z,9.03
2018-11-29T19:15:38.181Z,8.55
2018-11-29T19:18:10.502Z,10.10
2018-11-29T19:20:37.435Z,7.95
2018-11-29T19:23:06.440Z,9.93
2018-11-29T19:25:35.294Z,10.15
2018-11-29T19:28:03.976Z,12.80
2018-11-29T19:30:33.076Z,11.00
2018-11-29T19:33:33.723Z,9.30
2018-11-29T19:36:02.648Z,10.10
2018-11-29T19:38:31.484Z,12.05
2018-11-29T19:41:00.235Z,9.87
2018-11-29T19:43:29.059Z,9.55
2018-11-29T19:45:57.909Z,9.38
2018-11-29T19:48:26.648Z,9.98
2018-11-29T19:50:55.468Z,9.98
2018-11-29T19:53:26.873Z,8.15
2018-11-29T19:56:01.115Z,10.13
2018-11-29T19:58:29.886Z,8.63
2018-11-29T20:00:58.696Z,13.62
2018-11-29T20:03:27.393Z,9.90
2018-11-29T20:05:56.200Z,12.13
2018-11-29T20:08:24.944Z,11.10
2018-11-29T20:10:53.799Z,8.75
2018-11-29T20:13:22.432Z,19.93
2018-11-29T20:15:52.826Z,13.67
2018-11-29T20:18:21.652Z,14.20
2018-11-29T20:20:50.717Z,12.90
2018-11-29T20:23:19.571Z,9.80
2018-11-29T20:25:48.536Z,9.58
2018-11-29T20:28:17.263Z,10.00
2018-11-29T20:30:46.086Z,10.13
2018-11-29T20:33:14.910Z,10.50
2018-11-29T20:35:43.697Z,10.80
2018-11-29T20:38:12.448Z,10.25
2018-11-29T20:40:42.708Z,10.63
2018-11-29T20:43:11.479Z,10.40
2018-11-29T20:45:53.907Z,9.33
2018-11-29T20:48:27.836Z,9.40
2018-11-29T20:50:58.037Z,10.63
2018-11-29T20:53:34.589Z,12.63
2018-11-29T20:56:04.219Z,10.18
2018-11-29T20:58:32.984Z,10.78
2018-11-29T21:01:01.906Z,10.88
2018-11-29T21:03:30.674Z,10.28
2018-11-29T21:06:00.060Z,11.48
2018-11-29T21:08:28.862Z,10.65
2018-11-29T21:10:57.644Z,10.80
2018-11-29T21:13:26.368Z,9.18
2018-11-29T21:15:55.128Z,10.45
2018-11-29T21:18:23.948Z,9.33
2018-11-29T21:20:52.976Z,11.08
2018-11-29T21:23:21.715Z,10.48
2018-11-29T21:25:50.463Z,9.80
2018-11-29T21:28:19.283Z,11.08
2018-11-29T21:30:48.137Z,9.95
2018-11-29T21:33:16.846Z,11.08
2018-11-29T21:35:45.847Z,9.78
2018-11-29T21:38:16.776Z,11.38
2018-11-29T21:40:53.328Z,11.10
2018-11-29T21:43:22.084Z,10.72
2018-11-29T21:45:51.019Z,11.33
2018-11-29T21:48:19.837Z,11.55
2018-11-29T21:50:48.831Z,10.48
2018-11-29T21:53:17.580Z,11.75
2018-11-29T21:55:46.407Z,12.85
2018-11-29T21:58:15.200Z,11.70
2018-11-29T22:00:43.971Z,11.95
2018-11-29T22:03:12.757Z,12.03
2018-11-29T22:05:41.517Z,12.88
2018-11-29T22:08:10.426Z,11.75
2018-11-29T22:10:39.323Z,12.00
2018-11-29T22:13:08.076Z,11.28
2018-11-29T22:15:36.942Z,10.80
2018-11-29T22:18:13.813Z,11.63
2018-11-29T22:20:43.009Z,11.68
2018-11-29T22:23:11.776Z,10.13
2018-11-29T22:25:41.263Z,10.70
2018-11-29T22:28:10.228Z,10.00
2018-11-29T22:30:39.087Z,11.30
2018-11-29T22:33:08.059Z,11.80
2018-11-29T22:35:37.052Z,10.78
2018-11-29T22:38:06.904Z,10.65
2018-11-29T22:40:35.772Z,11.40
2018-11-29T22:43:05.525Z,11.35
2018-11-29T22:45:34.306Z,10.08
2018-11-29T22:48:03.301Z,11.05
2018-11-29T22:50:32.076Z,11.50
2018-11-29T22:53:00.960Z,11.45
2018-11-29T22:55:29.748Z,12.93
2018-11-29T22:57:58.512Z,12.40
2018-11-29T23:00:31.882Z,11.03
2018-11-29T23:03:00.969Z,11.73
2018-11-29T23:05:29.812Z,11.55
2018-11-29T23:07:58.538Z,12.30
2018-11-29T23:10:27.858Z,11.75
2018-11-29T23:12:56.263Z,10.10
2018-11-29T23:15:25.161Z,10.55
2018-11-29T23:17:54.047Z,11.30
2018-11-29T23:20:23.056Z,10.35
2018-11-29T23:22:51.830Z,11.40
2018-11-29T23:25:20.628Z,11.65
2018-11-29T23:27:49.345Z,10.32
2018-11-29T23:30:18.489Z,10.35
2018-11-29T23:32:47.287Z,12.78
2018-11-29T23:35:16.423Z,10.75
2018-11-29T23:37:45.173Z,10.60
2018-11-29T23:40:17.375Z,11.28
2018-11-29T23:42:46.626Z,12.18
2018-11-29T23:45:15.612Z,11.60
2018-11-29T23:47:44.483Z,10.55
2018-11-29T23:50:14.932Z,11.10
2018-11-29T23:52:43.860Z,10.72
2018-11-29T23:55:17.035Z,11.70
2018-11-29T23:57:45.824Z,12.25
